• Join FlightAware (Why Join?)
  • Login
  • US Flag 
03:18AM EDT


 

Airport Tracker/Info


-or-


 

Live Flight TrackerFlight Track Log ✈ AWE1253 ✈ 31-Jul-2013 ✈ KPHL - KTPA

Flight Track Log - Related Links

Times and Time Zones

All times are in EDT time to prevent confusion due to time zone crossing. See the AWE1253 flight status page for this flight to view local times or setup timezone preferences in your user account.

Time Position Orientation Groundspeed Altitude Reporting Facility
EDT Latitude Longitude Course Direction KTS MPH feet Rate Location/Type
08:32PM 39.8667 -75.2833 237° Southwest 177 204 800  Level Philadelphia TRACON
08:33PM 39.8500 -75.3167 237° Southwest 190 219 2,000 2,100 Climbing Philadelphia TRACON
08:34PM 39.8500 -75.4000 270° West 239 275 4,200 2,760 Climbing Philadelphia TRACON
08:36PM 39.8408 -75.6158 267° West 282 325 10,700 2,520 Climbing New York Center
08:37PM 39.8386 -75.7236 268° West 289 333 12,300 1,500 Climbing New York Center
08:38PM 39.8106 -75.8461 253° West 342 394 13,700 1,860 Climbing New York Center
08:39PM 39.7414 -75.9492 229° Southwest 363 418 16,000 2,460 Climbing New York Center
08:40PM 39.6853 -76.0394 231° Southwest 397 457 18,700 2,280 Climbing New York Center
08:41PM 39.6175 -76.1556 233° Southwest 397 457 20,600 1,440 Climbing New York Center
08:42PM 39.5411 -76.2711 229° Southwest 408 470 21,600 1,200 Climbing New York Center
08:43PM 39.4694 -76.3844 231° Southwest 414 476 23,100 1,920 Climbing Washington Center
08:44PM 39.3914 -76.5044 230° Southwest 419 482 25,500 2,160 Climbing Washington Center
08:45PM 39.3156 -76.6189 229° Southwest 424 488 27,500 1,800 Climbing Washington Center
08:46PM 39.2375 -76.7225 226° Southwest 419 482 29,100 1,260 Climbing Washington Center
08:47PM 39.1469 -76.8147 218° Southwest 414 476 30,100 420 Climbing Washington Center
08:48PM 39.0481 -76.9014 214° Southwest 425 489 30,000  Descending Washington Center
08:49PM 38.9492 -76.9903 215° Southwest 435 501 30,100  Climbing Washington Center
08:50PM 38.8603 -77.0844 220° Southwest 430 495 30,000 -60 Descending Washington Center
08:51PM 38.7756 -77.1972 226° Southwest 430 495 30,000  Level Washington Center
08:52PM 38.6886 -77.3072 225° Southwest 440 506 30,000  Level Washington Center
08:53PM 38.5928 -77.4297 225° Southwest 440 506 30,000  Level Washington Center
08:54PM 38.5056 -77.5392 224° Southwest 440 506 30,100  Climbing Washington Center
08:55PM 38.4122 -77.6425 221° Southwest 445 512 30,100  Level Washington Center
08:56PM 38.3125 -77.7431 218° Southwest 450 518 30,100 -60 Level Washington Center
08:57PM 38.2189 -77.8433 220° Southwest 450 518 30,000  Descending Washington Center
08:58PM 38.1189 -77.9433 218° Southwest 456 525 30,100  Climbing Washington Center
08:59PM 38.0211 -78.0431 219° Southwest 456 525 30,100  Level Washington Center
09:00PM 37.9336 -78.1325 219° Southwest 450 518 30,100  Level Washington Center
09:01PM 37.8375 -78.2344 220° Southwest 456 525 30,100  Level Washington Center
09:02PM 37.7267 -78.3408 217° Southwest 456 525 30,100 -60 Level Washington Center
09:03PM 37.6264 -78.4394 218° Southwest 456 525 30,000  Descending Washington Center
09:04PM 37.5281 -78.5378 218° Southwest 456 525 30,100  Climbing Washington Center
09:05PM 37.4256 -78.6386 218° Southwest 456 525 30,100  Level Washington Center
09:06PM 37.3378 -78.7264 218° Southwest 456 525 30,100 -60 Level Washington Center
09:07PM 37.2411 -78.8294 220° Southwest 456 525 30,000  Descending Washington Center
09:08PM 37.1464 -78.9322 221° Southwest 461 531 30,100  Climbing Washington Center
09:09PM 37.0517 -79.0400 222° Southwest 461 531 30,100 -60 Level Washington Center
09:10PM 36.9586 -79.1478 223° Southwest 461 531 30,000 -60 Descending Washington Center
09:11PM 36.8572 -79.2625 222° Southwest 454 522 30,000  Level Washington Center
09:12PM 36.7642 -79.3694 223° Southwest 454 522 30,100  Climbing Washington Center
09:13PM 36.6689 -79.4736 221° Southwest 454 522 30,000  Descending Washington Center
09:14PM 36.5778 -79.5803 223° Southwest 454 522 30,100  Climbing Washington Center
09:15PM 36.4958 -79.6717 222° Southwest 455 524 30,100 -60 Level Atlanta Center
09:16PM 36.4033 -79.7747 222° Southwest 449 517 30,000  Descending Atlanta Center
09:17PM 36.3172 -79.8772 224° Southwest 449 517 30,100  Climbing Atlanta Center
09:18PM 36.2203 -79.9697 218° Southwest 449 517 30,000  Descending Atlanta Center
09:19PM 36.1067 -80.0656 214° Southwest 449 517 30,100  Climbing Atlanta Center
09:20PM 36.0072 -80.1575 217° Southwest 449 517 30,100 -60 Level Atlanta Center
09:21PM 35.9100 -80.2494 217° Southwest 449 517 30,000  Descending Atlanta Center
09:22PM 35.8097 -80.3078 205° Southwest 442 509 30,100  Climbing Atlanta Center
09:23PM 35.6922 -80.3542 198° South 447 514 30,000 -60 Descending Atlanta Center
09:24PM 35.5769 -80.4103 202° Southwest 454 522 30,000  Level Atlanta Center
09:25PM 35.4617 -80.4614 200° South 448 516 30,100  Climbing Atlanta Center
09:26PM 35.3339 -80.5206 201° Southwest 448 516 30,000 -60 Descending Atlanta Center
09:27PM 35.2186 -80.5711 200° South 443 510 30,000  Level Atlanta Center
09:28PM 35.1053 -80.6242 201° Southwest 443 510 30,000  Level Atlanta Center
09:30PM 34.8319 -80.7453 200° South 435 501 30,100  Climbing Jacksonville Center
09:31PM 34.7181 -80.7961 200° South 440 506 30,000 -60 Descending Jacksonville Center
09:32PM 34.6022 -80.8444 199° South 440 506 30,000  Level Jacksonville Center
09:33PM 34.4903 -80.8975 201° Southwest 440 506 30,000  Level Jacksonville Center
09:34PM 34.3764 -80.9453 199° South 445 512 30,100  Climbing Jacksonville Center
09:35PM 34.2667 -80.9956 201° Southwest 445 512 30,000 -60 Descending Jacksonville Center
09:36PM 34.1628 -81.0381 199° South 430 495 30,000  Level Jacksonville Center
09:37PM 34.0447 -81.0881 199° South 430 495 30,000  Level Jacksonville Center
09:38PM 33.9286 -81.1356 199° South 443 510 30,000  Level Jacksonville Center
09:39PM 33.8103 -81.1853 199° South 448 516 30,100  Climbing Jacksonville Center
09:40PM 33.6900 -81.2400 201° Southwest 453 521 30,000 -60 Descending Jacksonville Center
09:41PM 33.5739 -81.2922 201° Southwest 453 521 30,000  Level Jacksonville Center
09:42PM 33.4553 -81.3417 199° South 453 521 30,000  Level Jacksonville Center
09:43PM 33.3392 -81.3908 199° South 453 521 30,000  Level Jacksonville Center
09:44PM 33.2186 -81.4425 200° South 453 521 30,000  Level Jacksonville Center
09:45PM 33.1003 -81.4917 199° South 453 521 30,000  Level Jacksonville Center
09:46PM 32.9819 -81.5431 200° South 453 521 30,000  Level Jacksonville Center
09:47PM 32.8675 -81.5917 200° South 453 521 30,000  Level Jacksonville Center
09:48PM 32.7492 -81.6403 199° South 448 516 30,000  Level Jacksonville Center
09:49PM 32.6306 -81.6914 200° South 442 509 30,000  Level Jacksonville Center
09:50PM 32.4994 -81.7422 198° South 448 516 30,100  Climbing Jacksonville Center
09:51PM 32.3767 -81.7708 191° South 453 521 30,100  Level Jacksonville Center
09:52PM 32.2494 -81.7994 191° South 453 521 30,100  Level Jacksonville Center
09:53PM 32.1369 -81.8253 191° South 458 527 30,100  Level Jacksonville Center
09:54PM 31.9975 -81.8564 191° South 469 540 30,100 -60 Level Jacksonville Center
09:55PM 31.8681 -81.8822 190° South 469 540 30,000  Descending Jacksonville Center
09:56PM 31.7369 -81.9106 190° South 469 540 30,100  Climbing Jacksonville Center
09:57PM 31.6222 -81.9314 189° South 469 540 30,100 -60 Level Jacksonville Center
09:58PM 31.4803 -81.9619 190° South 469 540 30,000  Descending Jacksonville Center
09:59PM 31.3636 -81.9875 191° South 469 540 30,100  Climbing Jacksonville Center
10:00PM 31.2219 -82.0181 190° South 469 540 30,000 -60 Descending Jacksonville Center
10:01PM 31.0947 -82.0458 191° South 469 540 30,000  Level Jacksonville Center
10:02PM 30.9656 -82.0736 190° South 469 540 30,000  Level Jacksonville Center
10:03PM 30.8486 -82.1014 192° South 469 540 30,000  Level Jacksonville Center
10:04PM 30.7214 -82.1264 190° South 469 540 30,000  Level Jacksonville Center
10:05PM 30.5942 -82.1542 191° South 469 540 30,000  Level Jacksonville Center
10:06PM 30.4544 -82.1769 188° South 469 540 30,000  Level Jacksonville Center
10:07PM 30.3253 -82.2042 190° South 469 540 30,000  Level Jacksonville Center
10:08PM 30.2000 -82.2292 190° South 469 540 30,000  Level Jacksonville Center
10:09PM 30.0728 -82.2564 190° South 469 540 30,000 -480 Level Jacksonville Center
10:10PM 29.9603 -82.2836 192° South 469 540 29,100 -900 Descending Jacksonville Center
10:11PM 29.8289 -82.3131 191° South 469 540 28,200 -1,080 Descending Jacksonville Center
10:12PM 29.6933 -82.3356 188° South 459 528 27,000 -1,140 Descending Jacksonville Center
10:13PM 29.5703 -82.3528 187° South 459 528 26,000 -540 Descending Jacksonville Center
10:14PM 29.4447 -82.3417 176° South 454 522 26,000 -660 Level Jacksonville Center
10:15PM 29.3217 -82.3256 173° South 449 517 24,700 -6,540 Descending Jacksonville Center
10:16PM 29.2006 -82.3122 175° South 449 517 13,000 -2,880 Descending Jacksonville Center
10:17PM 29.0961 -82.3008 175° South 437 503 19,000 1,800 Climbing Jacksonville Center
10:18PM 28.9811 -82.2850 173° South 431 496 16,600 -2,880 Descending Jacksonville Center
10:19PM 28.8581 -82.2714 174° South 417 480 13,300 -1,440 Descending Jacksonville Center
10:22PM 28.6000 -82.2500 176° South 386 444 11,800 -660 Descending Tampa TRACON
10:23PM 28.5000 -82.2500 180° South 378 435 11,100 -600 Descending Tampa TRACON
10:24PM 28.3833 -82.2667 187° South 363 418 10,700 -600 Descending Tampa TRACON
10:25PM 28.3000 -82.3000 199° South 315 362 9,900 -1,140 Descending Tampa TRACON
10:26PM 28.2333 -82.3333 204° Southwest 289 333 8,500 -1,500 Descending Tampa TRACON
10:27PM 28.1667 -82.3500 192° South 279 321 7,100 -900 Descending Tampa TRACON
10:28PM 28.0833 -82.3833 199° South 276 318 6,800 -960 Descending Tampa TRACON
10:29PM 28.0167 -82.4167 204° Southwest 273 314 5,100 -1,740 Descending Tampa TRACON
10:30PM 27.9333 -82.4333 190° South 261 300 3,000 -1,200 Descending Tampa TRACON
10:31PM 27.8833 -82.4667 211° Southwest 229 264 2,700 -180 Descending Tampa TRACON
10:32PM 27.8500 -82.5167 233° Southwest 231 266 2,700 -540 Level Tampa TRACON
10:33PM 27.8833 -82.5500 319° Northwest 205 236 1,800 -1,200 Descending Tampa TRACON
10:34PM 27.9333 -82.5500 360° North 168 193 500 -1,200 Descending Tampa TRACON